sensor_id;sensor_type;location;lat;lon;timestamp;temperature;humidity
54684;DHT22;40582;53.100;6.686;2023-03-31T00:00:44;10.20;99.90
54684;DHT22;40582;53.100;6.686;2023-03-31T00:03:12;10.20;99.90
54684;DHT22;40582;53.100;6.686;2023-03-31T00:05:38;10.20;99.90
54684;DHT22;40582;53.100;6.686;2023-03-31T00:08:04;10.20;99.90
54684;DHT22;40582;53.100;6.686;2023-03-31T00:10:32;10.30;99.90
54684;DHT22;40582;53.100;6.686;2023-03-31T00:13:00;10.30;99.90
54684;DHT22;40582;53.100;6.686;2023-03-31T00:15:26;10.30;99.90
54684;DHT22;40582;53.100;6.686;2023-03-31T00:17:52;10.30;99.90
54684;DHT22;40582;53.100;6.686;2023-03-31T00:20:18;10.30;99.90
54684;DHT22;40582;53.100;6.686;2023-03-31T00:22:44;10.30;99.90
54684;DHT22;40582;53.100;6.686;2023-03-31T00:25:13;10.30;99.90
54684;DHT22;40582;53.100;6.686;2023-03-31T00:27:43;10.30;99.90
54684;DHT22;40582;53.100;6.686;2023-03-31T00:30:11;10.30;99.90
54684;DHT22;40582;53.100;6.686;2023-03-31T00:32:37;10.30;99.90
54684;DHT22;40582;53.100;6.686;2023-03-31T00:35:03;10.20;99.90
54684;DHT22;40582;53.100;6.686;2023-03-31T00:37:29;10.20;99.90
54684;DHT22;40582;53.100;6.686;2023-03-31T00:39:55;10.20;99.90
54684;DHT22;40582;53.100;6.686;2023-03-31T00:42:22;10.20;99.90
54684;DHT22;40582;53.100;6.686;2023-03-31T00:47:40;10.20;99.90
54684;DHT22;40582;53.100;6.686;2023-03-31T00:50:18;10.20;99.90
54684;DHT22;40582;53.100;6.686;2023-03-31T00:53:05;10.20;99.90
54684;DHT22;40582;53.100;6.686;2023-03-31T00:55:41;10.10;99.90
54684;DHT22;40582;53.100;6.686;2023-03-31T00:58:08;10.10;99.90
54684;DHT22;40582;53.100;6.686;2023-03-31T01:00:40;10.10;99.90
54684;DHT22;40582;53.100;6.686;2023-03-31T01:03:06;10.20;99.90
54684;DHT22;40582;53.100;6.686;2023-03-31T01:05:49;10.10;99.90
54684;DHT22;40582;53.100;6.686;2023-03-31T01:08:18;10.10;99.90
54684;DHT22;40582;53.100;6.686;2023-03-31T01:10:48;10.10;99.90
54684;DHT22;40582;53.100;6.686;2023-03-31T01:13:16;10.00;99.90
54684;DHT22;40582;53.100;6.686;2023-03-31T01:15:42;10.00;99.90
54684;DHT22;40582;53.100;6.686;2023-03-31T01:18:09;10.00;99.90
54684;DHT22;40582;53.100;6.686;2023-03-31T01:20:50;10.00;99.90
54684;DHT22;40582;53.100;6.686;2023-03-31T01:37:34;9.80;99.90
54684;DHT22;40582;53.100;6.686;2023-03-31T01:43:02;9.70;99.90
54684;DHT22;40582;53.100;6.686;2023-03-31T01:45:35;9.70;99.90
54684;DHT22;40582;53.100;6.686;2023-03-31T01:48:16;9.70;99.90
54684;DHT22;40582;53.100;6.686;2023-03-31T01:51:05;9.70;99.90
54684;DHT22;40582;53.100;6.686;2023-03-31T01:53:55;9.70;99.90
54684;DHT22;40582;53.100;6.686;2023-03-31T01:56:34;9.80;99.90
54684;DHT22;40582;53.100;6.686;2023-03-31T01:59:16;9.80;99.90
54684;DHT22;40582;53.100;6.686;2023-03-31T02:01:57;9.80;99.90
54684;DHT22;40582;53.100;6.686;2023-03-31T02:04:29;9.80;99.90
54684;DHT22;40582;53.100;6.686;2023-03-31T02:07:02;9.80;99.90
54684;DHT22;40582;53.100;6.686;2023-03-31T02:09:32;9.80;99.90
54684;DHT22;40582;53.100;6.686;2023-03-31T02:12:03;9.80;99.90
54684;DHT22;40582;53.100;6.686;2023-03-31T02:14:30;9.80;99.90
54684;DHT22;40582;53.100;6.686;2023-03-31T02:16:58;9.80;99.90
54684;DHT22;40582;53.100;6.686;2023-03-31T02:19:32;9.80;99.90
54684;DHT22;40582;53.100;6.686;2023-03-31T02:22:01;9.90;99.90
54684;DHT22;40582;53.100;6.686;2023-03-31T02:24:30;9.90;99.90
54684;DHT22;40582;53.100;6.686;2023-03-31T02:27:06;9.90;99.90
54684;DHT22;40582;53.100;6.686;2023-03-31T02:29:33;9.90;99.90
54684;DHT22;40582;53.100;6.686;2023-03-31T02:34:50;9.90;99.90
54684;DHT22;40582;53.100;6.686;2023-03-31T02:37:16;9.90;99.90
54684;DHT22;40582;53.100;6.686;2023-03-31T02:39:44;9.90;99.90
54684;DHT22;40582;53.100;6.686;2023-03-31T02:42:11;9.90;99.90
54684;DHT22;40582;53.100;6.686;2023-03-31T02:44:38;10.00;99.90
54684;DHT22;40582;53.100;6.686;2023-03-31T02:47:09;10.00;99.90
54684;DHT22;40582;53.100;6.686;2023-03-31T02:49:38;10.10;99.90
54684;DHT22;40582;53.100;6.686;2023-03-31T02:52:20;10.10;99.90
54684;DHT22;40582;53.100;6.686;2023-03-31T02:55:12;10.10;99.90
54684;DHT22;40582;53.100;6.686;2023-03-31T03:11:41;10.10;99.90
54684;DHT22;40582;53.100;6.686;2023-03-31T03:19:59;10.10;99.90
54684;DHT22;40582;53.100;6.686;2023-03-31T03:22:25;10.10;99.90
54684;DHT22;40582;53.100;6.686;2023-03-31T03:24:51;10.00;99.90
54684;DHT22;40582;53.100;6.686;2023-03-31T03:27:18;10.00;99.90
54684;DHT22;40582;53.100;6.686;2023-03-31T03:29:46;10.00;99.90
54684;DHT22;40582;53.100;6.686;2023-03-31T03:32:12;10.00;99.90
54684;DHT22;40582;53.100;6.686;2023-03-31T03:34:38;10.00;99.90
54684;DHT22;40582;53.100;6.686;2023-03-31T03:37:04;10.00;99.90
54684;DHT22;40582;53.100;6.686;2023-03-31T03:39:30;10.00;99.90
54684;DHT22;40582;53.100;6.686;2023-03-31T03:41:56;10.00;99.90
54684;DHT22;40582;53.100;6.686;2023-03-31T03:44:22;10.00;99.90
54684;DHT22;40582;53.100;6.686;2023-03-31T03:46:47;10.00;99.90
54684;DHT22;40582;53.100;6.686;2023-03-31T03:49:13;10.10;99.90
54684;DHT22;40582;53.100;6.686;2023-03-31T03:51:39;10.10;99.90
54684;DHT22;40582;53.100;6.686;2023-03-31T03:54:04;10.10;99.90
54684;DHT22;40582;53.100;6.686;2023-03-31T03:56:30;10.10;99.90
54684;DHT22;40582;53.100;6.686;2023-03-31T03:58:56;10.10;99.90
54684;DHT22;40582;53.100;6.686;2023-03-31T04:01:22;10.10;99.90
54684;DHT22;40582;53.100;6.686;2023-03-31T04:03:48;10.10;99.90
54684;DHT22;40582;53.100;6.686;2023-03-31T04:06:14;10.20;99.90
54684;DHT22;40582;53.100;6.686;2023-03-31T04:08:40;10.20;99.90
54684;DHT22;40582;53.100;6.686;2023-03-31T04:11:12;10.20;99.90
54684;DHT22;40582;53.100;6.686;2023-03-31T04:13:38;10.20;99.90
54684;DHT22;40582;53.100;6.686;2023-03-31T04:16:04;10.20;99.90
54684;DHT22;40582;53.100;6.686;2023-03-31T04:18:30;10.20;99.90
54684;DHT22;40582;53.100;6.686;2023-03-31T04:20:56;10.20;99.90
54684;DHT22;40582;53.100;6.686;2023-03-31T04:23:44;10.20;99.90
54684;DHT22;40582;53.100;6.686;2023-03-31T04:26:14;10.20;99.90
54684;DHT22;40582;53.100;6.686;2023-03-31T04:28:41;10.20;99.90
54684;DHT22;40582;53.100;6.686;2023-03-31T04:31:12;10.20;99.90
54684;DHT22;40582;53.100;6.686;2023-03-31T04:33:53;10.30;99.90
54684;DHT22;40582;53.100;6.686;2023-03-31T04:36:19;10.30;99.90
54684;DHT22;40582;53.100;6.686;2023-03-31T04:38:47;10.30;99.90
54684;DHT22;40582;53.100;6.686;2023-03-31T04:41:15;10.30;99.90
54684;DHT22;40582;53.100;6.686;2023-03-31T04:43:42;10.20;99.90
54684;DHT22;40582;53.100;6.686;2023-03-31T04:46:08;10.20;99.90
54684;DHT22;40582;53.100;6.686;2023-03-31T04:48:34;10.20;99.90
54684;DHT22;40582;53.100;6.686;2023-03-31T04:50:59;10.20;99.90
54684;DHT22;40582;53.100;6.686;2023-03-31T04:53:25;10.20;99.90
54684;DHT22;40582;53.100;6.686;2023-03-31T04:55:51;10.20;99.90
54684;DHT22;40582;53.100;6.686;2023-03-31T04:58:17;10.20;99.90
54684;DHT22;40582;53.100;6.686;2023-03-31T05:00:43;10.20;99.90
54684;DHT22;40582;53.100;6.686;2023-03-31T05:03:08;10.10;99.90
54684;DHT22;40582;53.100;6.686;2023-03-31T05:05:35;10.10;99.90
54684;DHT22;40582;53.100;6.686;2023-03-31T05:08:01;10.10;99.90
54684;DHT22;40582;53.100;6.686;2023-03-31T05:10:27;10.10;99.90
54684;DHT22;40582;53.100;6.686;2023-03-31T05:12:53;10.10;99.90
54684;DHT22;40582;53.100;6.686;2023-03-31T05:15:19;10.10;99.90
54684;DHT22;40582;53.100;6.686;2023-03-31T05:17:45;10.10;99.90
54684;DHT22;40582;53.100;6.686;2023-03-31T05:20:11;10.20;99.90
54684;DHT22;40582;53.100;6.686;2023-03-31T05:22:38;10.20;99.90
54684;DHT22;40582;53.100;6.686;2023-03-31T05:25:06;10.20;99.90
54684;DHT22;40582;53.100;6.686;2023-03-31T05:27:32;10.20;99.90
54684;DHT22;40582;53.100;6.686;2023-03-31T05:29:58;10.20;99.90
54684;DHT22;40582;53.100;6.686;2023-03-31T05:32:25;10.20;99.90
54684;DHT22;40582;53.100;6.686;2023-03-31T05:34:52;10.10;99.90
54684;DHT22;40582;53.100;6.686;2023-03-31T05:37:22;10.20;99.90
54684;DHT22;40582;53.100;6.686;2023-03-31T05:39:49;10.10;99.90
54684;DHT22;40582;53.100;6.686;2023-03-31T05:42:14;10.10;99.90
54684;DHT22;40582;53.100;6.686;2023-03-31T05:44:40;10.10;99.90
54684;DHT22;40582;53.100;6.686;2023-03-31T05:47:06;10.10;99.90
54684;DHT22;40582;53.100;6.686;2023-03-31T05:49:31;10.10;99.90
54684;DHT22;40582;53.100;6.686;2023-03-31T05:51:57;10.10;99.90
54684;DHT22;40582;53.100;6.686;2023-03-31T05:54:23;10.10;99.90
54684;DHT22;40582;53.100;6.686;2023-03-31T05:56:48;10.10;99.90
54684;DHT22;40582;53.100;6.686;2023-03-31T05:59:14;10.10;99.90
54684;DHT22;40582;53.100;6.686;2023-03-31T06:01:40;10.10;99.90
54684;DHT22;40582;53.100;6.686;2023-03-31T06:04:06;10.10;99.90
54684;DHT22;40582;53.100;6.686;2023-03-31T06:06:32;10.10;99.90
54684;DHT22;40582;53.100;6.686;2023-03-31T06:08:59;10.10;99.90
54684;DHT22;40582;53.100;6.686;2023-03-31T06:11:25;10.10;99.90
54684;DHT22;40582;53.100;6.686;2023-03-31T06:13:51;10.10;99.90
54684;DHT22;40582;53.100;6.686;2023-03-31T06:16:17;10.10;99.90
54684;DHT22;40582;53.100;6.686;2023-03-31T06:18:43;10.10;99.90
54684;DHT22;40582;53.100;6.686;2023-03-31T06:21:12;10.10;99.90
54684;DHT22;40582;53.100;6.686;2023-03-31T06:23:38;10.20;99.90
54684;DHT22;40582;53.100;6.686;2023-03-31T06:26:06;10.10;99.90
54684;DHT22;40582;53.100;6.686;2023-03-31T06:28:36;10.10;99.90
54684;DHT22;40582;53.100;6.686;2023-03-31T06:31:06;10.20;99.90
54684;DHT22;40582;53.100;6.686;2023-03-31T06:33:33;10.20;99.90
54684;DHT22;40582;53.100;6.686;2023-03-31T06:35:59;10.10;99.90
54684;DHT22;40582;53.100;6.686;2023-03-31T06:38:30;10.20;99.90
54684;DHT22;40582;53.100;6.686;2023-03-31T06:40:55;10.20;99.90
54684;DHT22;40582;53.100;6.686;2023-03-31T06:43:21;10.20;99.90
54684;DHT22;40582;53.100;6.686;2023-03-31T06:45:47;10.20;99.90
54684;DHT22;40582;53.100;6.686;2023-03-31T06:48:13;10.10;99.90
54684;DHT22;40582;53.100;6.686;2023-03-31T06:50:40;10.10;99.90
54684;DHT22;40582;53.100;6.686;2023-03-31T06:53:07;10.10;99.90
54684;DHT22;40582;53.100;6.686;2023-03-31T06:55:33;10.10;99.90
54684;DHT22;40582;53.100;6.686;2023-03-31T06:57:59;10.10;99.90
54684;DHT22;40582;53.100;6.686;2023-03-31T07:00:25;10.10;99.90
54684;DHT22;40582;53.100;6.686;2023-03-31T07:02:52;10.10;99.90
54684;DHT22;40582;53.100;6.686;2023-03-31T07:05:18;10.10;99.90
54684;DHT22;40582;53.100;6.686;2023-03-31T07:07:44;10.10;99.90
54684;DHT22;40582;53.100;6.686;2023-03-31T07:10:10;10.20;99.90
54684;DHT22;40582;53.100;6.686;2023-03-31T07:12:36;10.20;99.90
54684;DHT22;40582;53.100;6.686;2023-03-31T07:15:02;10.20;99.90
54684;DHT22;40582;53.100;6.686;2023-03-31T07:17:28;10.20;99.90
54684;DHT22;40582;53.100;6.686;2023-03-31T07:19:53;10.70;99.90
54684;DHT22;40582;53.100;6.686;2023-03-31T07:22:19;10.30;99.90
54684;DHT22;40582;53.100;6.686;2023-03-31T07:24:45;10.30;99.90
54684;DHT22;40582;53.100;6.686;2023-03-31T07:27:10;10.30;99.90
54684;DHT22;40582;53.100;6.686;2023-03-31T07:29:36;10.30;99.90
54684;DHT22;40582;53.100;6.686;2023-03-31T07:32:02;10.30;99.90
54684;DHT22;40582;53.100;6.686;2023-03-31T07:34:28;10.30;99.90
54684;DHT22;40582;53.100;6.686;2023-03-31T07:36:57;10.30;99.90
54684;DHT22;40582;53.100;6.686;2023-03-31T07:39:23;10.30;99.90
54684;DHT22;40582;53.100;6.686;2023-03-31T07:41:48;10.30;99.90
54684;DHT22;40582;53.100;6.686;2023-03-31T07:44:14;10.30;99.90
54684;DHT22;40582;53.100;6.686;2023-03-31T07:46:42;10.30;99.90
54684;DHT22;40582;53.100;6.686;2023-03-31T07:49:07;10.30;99.90
54684;DHT22;40582;53.100;6.686;2023-03-31T07:51:34;10.30;99.90
54684;DHT22;40582;53.100;6.686;2023-03-31T07:54:00;10.30;99.90
54684;DHT22;40582;53.100;6.686;2023-03-31T07:56:26;10.30;99.90
54684;DHT22;40582;53.100;6.686;2023-03-31T07:58:52;10.30;99.90
54684;DHT22;40582;53.100;6.686;2023-03-31T08:01:20;10.20;99.90
54684;DHT22;40582;53.100;6.686;2023-03-31T08:03:47;10.30;99.90
54684;DHT22;40582;53.100;6.686;2023-03-31T08:06:21;10.30;99.90
54684;DHT22;40582;53.100;6.686;2023-03-31T08:08:48;10.30;99.90
54684;DHT22;40582;53.100;6.686;2023-03-31T08:11:14;10.20;99.90
54684;DHT22;40582;53.100;6.686;2023-03-31T08:13:40;10.30;99.90
54684;DHT22;40582;53.100;6.686;2023-03-31T08:16:05;10.30;99.90
54684;DHT22;40582;53.100;6.686;2023-03-31T08:18:31;10.30;99.90
54684;DHT22;40582;53.100;6.686;2023-03-31T08:20:57;10.30;99.90
54684;DHT22;40582;53.100;6.686;2023-03-31T08:23:23;10.30;99.90
54684;DHT22;40582;53.100;6.686;2023-03-31T08:25:48;10.30;99.90
54684;DHT22;40582;53.100;6.686;2023-03-31T08:28:14;10.40;99.90
54684;DHT22;40582;53.100;6.686;2023-03-31T08:30:40;10.40;99.90
54684;DHT22;40582;53.100;6.686;2023-03-31T08:33:06;10.40;99.90
54684;DHT22;40582;53.100;6.686;2023-03-31T08:35:35;10.50;99.90
54684;DHT22;40582;53.100;6.686;2023-03-31T08:38:01;10.50;99.90
54684;DHT22;40582;53.100;6.686;2023-03-31T08:40:29;10.60;99.90
54684;DHT22;40582;53.100;6.686;2023-03-31T08:43:10;10.60;99.90
54684;DHT22;40582;53.100;6.686;2023-03-31T08:45:41;10.70;99.90
54684;DHT22;40582;53.100;6.686;2023-03-31T08:48:13;10.80;99.90
54684;DHT22;40582;53.100;6.686;2023-03-31T08:50:48;10.80;99.90
54684;DHT22;40582;53.100;6.686;2023-03-31T08:53:25;10.80;99.90
54684;DHT22;40582;53.100;6.686;2023-03-31T08:55:54;10.80;99.90
54684;DHT22;40582;53.100;6.686;2023-03-31T08:58:40;10.90;99.90
54684;DHT22;40582;53.100;6.686;2023-03-31T09:06:55;10.90;99.90
54684;DHT22;40582;53.100;6.686;2023-03-31T09:09:38;10.90;99.90
54684;DHT22;40582;53.100;6.686;2023-03-31T09:12:17;10.90;99.90
54684;DHT22;40582;53.100;6.686;2023-03-31T09:14:57;10.90;99.90
54684;DHT22;40582;53.100;6.686;2023-03-31T09:17:33;10.90;99.90
54684;DHT22;40582;53.100;6.686;2023-03-31T09:20:21;10.90;99.90
54684;DHT22;40582;53.100;6.686;2023-03-31T09:22:54;10.90;99.90
54684;DHT22;40582;53.100;6.686;2023-03-31T09:25:26;10.90;99.90
54684;DHT22;40582;53.100;6.686;2023-03-31T09:27:57;11.00;99.90
54684;DHT22;40582;53.100;6.686;2023-03-31T09:30:30;11.00;99.90
54684;DHT22;40582;53.100;6.686;2023-03-31T09:35:34;11.10;99.90
54684;DHT22;40582;53.100;6.686;2023-03-31T09:38:00;11.20;99.90
54684;DHT22;40582;53.100;6.686;2023-03-31T09:40:27;11.20;99.90
54684;DHT22;40582;53.100;6.686;2023-03-31T09:42:59;11.30;99.90
54684;DHT22;40582;53.100;6.686;2023-03-31T09:45:26;11.30;99.90
54684;DHT22;40582;53.100;6.686;2023-03-31T09:47:57;11.30;99.90
54684;DHT22;40582;53.100;6.686;2023-03-31T09:50:25;11.40;99.90
54684;DHT22;40582;53.100;6.686;2023-03-31T09:52:55;11.40;99.90
54684;DHT22;40582;53.100;6.686;2023-03-31T09:55:36;11.40;99.90
54684;DHT22;40582;53.100;6.686;2023-03-31T09:58:12;11.50;99.90
54684;DHT22;40582;53.100;6.686;2023-03-31T10:00:42;11.60;99.90
54684;DHT22;40582;53.100;6.686;2023-03-31T10:03:12;11.70;99.90
54684;DHT22;40582;53.100;6.686;2023-03-31T10:05:49;11.80;99.90
54684;DHT22;40582;53.100;6.686;2023-03-31T10:10:50;12.00;99.90
54684;DHT22;40582;53.100;6.686;2023-03-31T10:13:20;12.00;99.90
54684;DHT22;40582;53.100;6.686;2023-03-31T10:15:46;12.00;99.90
54684;DHT22;40582;53.100;6.686;2023-03-31T10:18:18;12.00;99.90
54684;DHT22;40582;53.100;6.686;2023-03-31T10:20:49;12.00;99.90
54684;DHT22;40582;53.100;6.686;2023-03-31T10:23:45;12.00;99.90
54684;DHT22;40582;53.100;6.686;2023-03-31T10:26:15;12.00;99.90
54684;DHT22;40582;53.100;6.686;2023-03-31T10:28:41;12.10;99.90
54684;DHT22;40582;53.100;6.686;2023-03-31T10:31:07;12.30;99.90
54684;DHT22;40582;53.100;6.686;2023-03-31T10:33:39;12.40;99.90
54684;DHT22;40582;53.100;6.686;2023-03-31T10:36:11;12.40;99.90
54684;DHT22;40582;53.100;6.686;2023-03-31T10:38:43;12.40;99.90
54684;DHT22;40582;53.100;6.686;2023-03-31T10:41:11;12.30;99.90
54684;DHT22;40582;53.100;6.686;2023-03-31T10:43:46;12.30;99.90
54684;DHT22;40582;53.100;6.686;2023-03-31T10:46:12;12.20;99.90
54684;DHT22;40582;53.100;6.686;2023-03-31T10:48:40;12.20;99.90
54684;DHT22;40582;53.100;6.686;2023-03-31T10:53:50;12.30;99.90
54684;DHT22;40582;53.100;6.686;2023-03-31T10:56:42;12.40;99.90
54684;DHT22;40582;53.100;6.686;2023-03-31T11:02:05;12.70;99.90
54684;DHT22;40582;53.100;6.686;2023-03-31T11:10:41;13.40;99.90
54684;DHT22;40582;53.100;6.686;2023-03-31T11:13:16;13.70;99.90
54684;DHT22;40582;53.100;6.686;2023-03-31T11:16:03;13.90;99.90
54684;DHT22;40582;53.100;6.686;2023-03-31T11:30:03;14.60;99.90
54684;DHT22;40582;53.100;6.686;2023-03-31T11:40:46;15.60;99.90
54684;DHT22;40582;53.100;6.686;2023-03-31T11:43:43;15.90;99.90
54684;DHT22;40582;53.100;6.686;2023-03-31T11:48:57;15.30;99.90
54684;DHT22;40582;53.100;6.686;2023-03-31T11:51:47;14.80;99.90
54684;DHT22;40582;53.100;6.686;2023-03-31T11:54:22;14.30;99.90
54684;DHT22;40582;53.100;6.686;2023-03-31T11:56:50;14.00;99.90
54684;DHT22;40582;53.100;6.686;2023-03-31T11:59:19;14.10;99.90
54684;DHT22;40582;53.100;6.686;2023-03-31T12:02:09;14.30;99.90
54684;DHT22;40582;53.100;6.686;2023-03-31T12:04:43;14.70;99.90
54684;DHT22;40582;53.100;6.686;2023-03-31T12:10:16;15.00;99.90
54684;DHT22;40582;53.100;6.686;2023-03-31T12:13:01;14.80;99.90
54684;DHT22;40582;53.100;6.686;2023-03-31T12:15:34;14.60;99.90
54684;DHT22;40582;53.100;6.686;2023-03-31T12:18:23;14.50;99.90
54684;DHT22;40582;53.100;6.686;2023-03-31T12:20:55;14.40;99.90
54684;DHT22;40582;53.100;6.686;2023-03-31T12:23:25;14.30;99.90
54684;DHT22;40582;53.100;6.686;2023-03-31T12:26:34;14.30;99.90
54684;DHT22;40582;53.100;6.686;2023-03-31T12:29:18;14.40;99.90
54684;DHT22;40582;53.100;6.686;2023-03-31T12:31:46;14.30;99.90
54684;DHT22;40582;53.100;6.686;2023-03-31T12:34:15;14.20;99.90
54684;DHT22;40582;53.100;6.686;2023-03-31T12:39:44;14.20;99.90
54684;DHT22;40582;53.100;6.686;2023-03-31T12:45:26;14.20;99.90
54684;DHT22;40582;53.100;6.686;2023-03-31T12:47:58;14.20;99.90
54684;DHT22;40582;53.100;6.686;2023-03-31T12:50:39;14.30;99.90
54684;DHT22;40582;53.100;6.686;2023-03-31T12:55:55;14.40;99.90
54684;DHT22;40582;53.100;6.686;2023-03-31T13:09:37;15.10;99.90
54684;DHT22;40582;53.100;6.686;2023-03-31T13:11:52;15.10;99.90
54684;DHT22;40582;53.100;6.686;2023-03-31T13:14:19;15.00;99.90
54684;DHT22;40582;53.100;6.686;2023-03-31T13:16:46;15.20;99.90
54684;DHT22;40582;53.100;6.686;2023-03-31T13:19:29;15.20;99.90
54684;DHT22;40582;53.100;6.686;2023-03-31T13:21:57;15.20;99.90
54684;DHT22;40582;53.100;6.686;2023-03-31T13:24:24;15.20;99.90
54684;DHT22;40582;53.100;6.686;2023-03-31T13:26:53;15.10;99.90
54684;DHT22;40582;53.100;6.686;2023-03-31T13:29:40;14.80;99.90
54684;DHT22;40582;53.100;6.686;2023-03-31T13:32:26;14.60;99.90
54684;DHT22;40582;53.100;6.686;2023-03-31T13:43:07;14.00;99.90
54684;DHT22;40582;53.100;6.686;2023-03-31T13:48:36;13.90;99.90
54684;DHT22;40582;53.100;6.686;2023-03-31T14:07:33;12.90;99.90
54684;DHT22;40582;53.100;6.686;2023-03-31T14:10:02;12.70;99.90
54684;DHT22;40582;53.100;6.686;2023-03-31T14:12:34;12.50;99.90
54684;DHT22;40582;53.100;6.686;2023-03-31T14:15:00;12.30;99.90
54684;DHT22;40582;53.100;6.686;2023-03-31T14:17:37;12.20;99.90
54684;DHT22;40582;53.100;6.686;2023-03-31T14:20:31;12.20;99.90
54684;DHT22;40582;53.100;6.686;2023-03-31T14:31:10;12.40;99.90
54684;DHT22;40582;53.100;6.686;2023-03-31T14:37:00;12.90;99.90
54684;DHT22;40582;53.100;6.686;2023-03-31T14:39:34;13.20;99.90
54684;DHT22;40582;53.100;6.686;2023-03-31T14:42:09;13.40;99.90
54684;DHT22;40582;53.100;6.686;2023-03-31T14:44:36;13.50;99.90
54684;DHT22;40582;53.100;6.686;2023-03-31T14:47:02;13.60;99.90
54684;DHT22;40582;53.100;6.686;2023-03-31T14:49:38;13.70;99.90
54684;DHT22;40582;53.100;6.686;2023-03-31T14:52:13;13.80;99.90
54684;DHT22;40582;53.100;6.686;2023-03-31T14:54:40;13.80;99.90
54684;DHT22;40582;53.100;6.686;2023-03-31T14:57:08;14.00;99.90
54684;DHT22;40582;53.100;6.686;2023-03-31T14:59:35;14.10;99.90
54684;DHT22;40582;53.100;6.686;2023-03-31T15:02:03;14.10;99.90
54684;DHT22;40582;53.100;6.686;2023-03-31T15:04:34;14.10;99.90
54684;DHT22;40582;53.100;6.686;2023-03-31T15:07:02;14.00;99.90
54684;DHT22;40582;53.100;6.686;2023-03-31T15:09:32;14.00;99.90
54684;DHT22;40582;53.100;6.686;2023-03-31T15:12:11;13.90;99.90
54684;DHT22;40582;53.100;6.686;2023-03-31T15:14:45;13.80;99.90
54684;DHT22;40582;53.100;6.686;2023-03-31T15:17:16;13.60;99.90
54684;DHT22;40582;53.100;6.686;2023-03-31T15:19:42;13.50;99.90
54684;DHT22;40582;53.100;6.686;2023-03-31T15:22:14;13.50;99.90
54684;DHT22;40582;53.100;6.686;2023-03-31T15:24:42;13.40;99.90
54684;DHT22;40582;53.100;6.686;2023-03-31T15:29:47;13.40;99.90
54684;DHT22;40582;53.100;6.686;2023-03-31T15:32:28;13.30;99.90
54684;DHT22;40582;53.100;6.686;2023-03-31T15:34:54;13.20;99.90
54684;DHT22;40582;53.100;6.686;2023-03-31T15:37:25;13.20;99.90
54684;DHT22;40582;53.100;6.686;2023-03-31T15:39:55;13.10;99.90
54684;DHT22;40582;53.100;6.686;2023-03-31T15:42:23;13.20;99.90
54684;DHT22;40582;53.100;6.686;2023-03-31T15:44:56;13.10;99.90
54684;DHT22;40582;53.100;6.686;2023-03-31T15:47:50;13.10;99.90
54684;DHT22;40582;53.100;6.686;2023-03-31T15:50:17;13.10;99.90
54684;DHT22;40582;53.100;6.686;2023-03-31T15:52:50;13.10;99.90
54684;DHT22;40582;53.100;6.686;2023-03-31T15:55:27;13.10;99.90
54684;DHT22;40582;53.100;6.686;2023-03-31T15:57:55;13.00;99.90
54684;DHT22;40582;53.100;6.686;2023-03-31T16:00:39;13.00;99.90
54684;DHT22;40582;53.100;6.686;2023-03-31T16:03:25;13.00;99.90
54684;DHT22;40582;53.100;6.686;2023-03-31T16:05:55;13.00;99.90
54684;DHT22;40582;53.100;6.686;2023-03-31T16:11:14;12.80;99.90
54684;DHT22;40582;53.100;6.686;2023-03-31T16:13:45;12.80;99.90
54684;DHT22;40582;53.100;6.686;2023-03-31T16:16:15;12.70;99.90
54684;DHT22;40582;53.100;6.686;2023-03-31T16:18:48;12.70;99.90
54684;DHT22;40582;53.100;6.686;2023-03-31T16:21:20;12.70;99.90
54684;DHT22;40582;53.100;6.686;2023-03-31T16:23:51;12.70;99.90
54684;DHT22;40582;53.100;6.686;2023-03-31T16:26:23;12.70;99.90
54684;DHT22;40582;53.100;6.686;2023-03-31T16:28:51;12.70;99.90
54684;DHT22;40582;53.100;6.686;2023-03-31T16:31:36;12.60;99.90
54684;DHT22;40582;53.100;6.686;2023-03-31T16:34:11;12.70;99.90
54684;DHT22;40582;53.100;6.686;2023-03-31T16:36:37;12.60;99.90
54684;DHT22;40582;53.100;6.686;2023-03-31T16:39:04;12.60;99.90
54684;DHT22;40582;53.100;6.686;2023-03-31T16:41:31;12.50;99.90
54684;DHT22;40582;53.100;6.686;2023-03-31T16:43:58;12.50;99.90
54684;DHT22;40582;53.100;6.686;2023-03-31T16:46:24;12.40;99.90
54684;DHT22;40582;53.100;6.686;2023-03-31T16:48:50;12.40;99.90
54684;DHT22;40582;53.100;6.686;2023-03-31T16:51:17;12.30;99.90
54684;DHT22;40582;53.100;6.686;2023-03-31T16:53:44;12.30;99.90
54684;DHT22;40582;53.100;6.686;2023-03-31T16:56:11;12.20;99.90
54684;DHT22;40582;53.100;6.686;2023-03-31T16:58:39;12.10;99.90
54684;DHT22;40582;53.100;6.686;2023-03-31T17:01:05;12.10;99.90
54684;DHT22;40582;53.100;6.686;2023-03-31T17:03:32;12.10;99.90
54684;DHT22;40582;53.100;6.686;2023-03-31T17:06:05;12.10;99.90
54684;DHT22;40582;53.100;6.686;2023-03-31T17:08:31;12.00;99.90
54684;DHT22;40582;53.100;6.686;2023-03-31T17:11:08;12.00;99.90
54684;DHT22;40582;53.100;6.686;2023-03-31T17:13:37;11.90;99.90
54684;DHT22;40582;53.100;6.686;2023-03-31T17:16:04;11.90;99.90
54684;DHT22;40582;53.100;6.686;2023-03-31T17:18:30;11.80;99.90
54684;DHT22;40582;53.100;6.686;2023-03-31T17:21:08;11.80;99.90
54684;DHT22;40582;53.100;6.686;2023-03-31T17:23:35;11.80;99.90
54684;DHT22;40582;53.100;6.686;2023-03-31T17:26:02;11.70;99.90
54684;DHT22;40582;53.100;6.686;2023-03-31T17:28:29;11.70;99.90
54684;DHT22;40582;53.100;6.686;2023-03-31T17:30:55;11.70;99.90
54684;DHT22;40582;53.100;6.686;2023-03-31T17:33:22;11.60;99.90
54684;DHT22;40582;53.100;6.686;2023-03-31T17:35:47;11.60;99.90
54684;DHT22;40582;53.100;6.686;2023-03-31T17:38:13;11.60;99.90
54684;DHT22;40582;53.100;6.686;2023-03-31T17:40:40;11.60;99.90
54684;DHT22;40582;53.100;6.686;2023-03-31T17:43:06;11.60;99.90
54684;DHT22;40582;53.100;6.686;2023-03-31T17:45:32;11.60;99.90
54684;DHT22;40582;53.100;6.686;2023-03-31T17:47:58;11.60;99.90
54684;DHT22;40582;53.100;6.686;2023-03-31T17:50:25;11.60;99.90
54684;DHT22;40582;53.100;6.686;2023-03-31T17:52:51;11.50;99.90
54684;DHT22;40582;53.100;6.686;2023-03-31T17:55:18;11.50;99.90
54684;DHT22;40582;53.100;6.686;2023-03-31T17:57:44;11.50;99.90
54684;DHT22;40582;53.100;6.686;2023-03-31T18:00:11;11.50;99.90
54684;DHT22;40582;53.100;6.686;2023-03-31T18:02:40;11.50;99.90
54684;DHT22;40582;53.100;6.686;2023-03-31T18:05:07;11.40;99.90
54684;DHT22;40582;53.100;6.686;2023-03-31T18:07:33;11.40;99.90
54684;DHT22;40582;53.100;6.686;2023-03-31T18:10:00;11.40;99.90
54684;DHT22;40582;53.100;6.686;2023-03-31T18:12:26;11.40;99.90
54684;DHT22;40582;53.100;6.686;2023-03-31T18:14:53;11.30;99.90
54684;DHT22;40582;53.100;6.686;2023-03-31T18:17:20;11.30;99.90
54684;DHT22;40582;53.100;6.686;2023-03-31T18:19:46;11.30;99.90
54684;DHT22;40582;53.100;6.686;2023-03-31T18:22:11;11.30;99.90
54684;DHT22;40582;53.100;6.686;2023-03-31T18:24:37;11.30;99.90